createdAt,value
2022-07-25T00:00:27.553Z,45.83
2022-07-25T00:02:54.438Z,45.67
2022-07-25T00:05:22.126Z,45.52
2022-07-25T00:07:49.985Z,46.09
2022-07-25T00:10:17.780Z,46.43
2022-07-25T00:12:45.526Z,46.12
2022-07-25T00:15:13.345Z,46.83
2022-07-25T00:17:40.543Z,46.42
2022-07-25T00:20:08.704Z,46.51
2022-07-25T00:22:35.802Z,46.62
2022-07-25T00:25:03.202Z,46.34
2022-07-25T00:27:30.156Z,46.69
2022-07-25T00:29:57.046Z,47.27
2022-07-25T00:32:24.039Z,46.90
2022-07-25T00:34:51.000Z,47.19
2022-07-25T00:37:17.915Z,47.53
2022-07-25T00:39:44.904Z,47.42
2022-07-25T00:42:11.820Z,47.87
2022-07-25T00:44:38.944Z,47.87
2022-07-25T00:47:05.978Z,47.30
2022-07-25T00:49:33.055Z,47.85
2022-07-25T00:52:03.872Z,47.40
2022-07-25T00:54:31.102Z,47.42
2022-07-25T00:56:58.188Z,47.70
2022-07-25T00:59:25.159Z,46.99
2022-07-25T01:01:52.410Z,47.37
2022-07-25T01:04:19.383Z,47.85
2022-07-25T01:06:46.885Z,48.49
2022-07-25T01:09:13.966Z,48.53
2022-07-25T01:11:40.986Z,49.00
2022-07-25T01:14:08.315Z,48.63
2022-07-25T01:16:35.539Z,48.94
2022-07-25T01:19:02.423Z,49.34
2022-07-25T01:21:29.842Z,49.57
2022-07-25T01:23:56.755Z,49.22
2022-07-25T01:26:23.729Z,49.68
2022-07-25T01:28:50.791Z,49.45
2022-07-25T01:31:17.952Z,49.49
2022-07-25T01:33:44.891Z,50.24
2022-07-25T01:36:12.187Z,49.98
2022-07-25T01:38:39.303Z,49.10
2022-07-25T01:41:06.794Z,49.63
2022-07-25T01:43:33.828Z,49.18
2022-07-25T01:46:00.779Z,49.04
2022-07-25T01:48:27.806Z,48.74
2022-07-25T01:50:54.785Z,49.10
2022-07-25T01:53:21.878Z,49.41
2022-07-25T01:55:48.849Z,49.52
2022-07-25T01:58:15.722Z,50.11
2022-07-25T02:00:42.694Z,50.03
2022-07-25T02:03:28.086Z,49.62
2022-07-25T02:05:56.210Z,50.06
2022-07-25T02:08:23.293Z,49.76
2022-07-25T02:10:50.264Z,50.13
2022-07-25T02:13:18.006Z,50.55
2022-07-25T02:15:45.023Z,50.68
2022-07-25T02:18:12.209Z,50.37
2022-07-25T02:20:39.281Z,50.95
2022-07-25T02:23:06.247Z,51.24
2022-07-25T02:25:33.982Z,51.58
2022-07-25T02:28:01.155Z,52.30
2022-07-25T02:30:28.476Z,52.64
2022-07-25T02:32:55.431Z,52.74
2022-07-25T02:35:22.450Z,53.76
2022-07-25T02:37:49.367Z,54.09
2022-07-25T02:40:16.292Z,53.77
2022-07-25T02:42:43.181Z,53.68
2022-07-25T02:45:10.605Z,54.04
2022-07-25T02:47:37.937Z,54.02
2022-07-25T02:50:05.630Z,53.79
2022-07-25T02:52:32.850Z,54.04
2022-07-25T02:55:01.190Z,54.10
2022-07-25T02:57:29.104Z,53.78
2022-07-25T02:59:55.955Z,54.35
2022-07-25T03:02:22.895Z,54.24
2022-07-25T03:04:49.855Z,54.02
2022-07-25T03:07:16.827Z,53.92
2022-07-25T03:09:43.826Z,54.42
2022-07-25T03:12:10.795Z,54.78
2022-07-25T03:14:37.738Z,54.64
2022-07-25T03:17:04.688Z,54.59
2022-07-25T03:19:31.577Z,54.60
2022-07-25T03:21:58.610Z,54.70
2022-07-25T03:24:25.470Z,55.16
2022-07-25T03:26:52.409Z,55.06
2022-07-25T03:29:19.305Z,55.08
2022-07-25T03:31:46.275Z,55.00
2022-07-25T03:34:13.243Z,54.41
2022-07-25T03:36:40.295Z,54.01
2022-07-25T03:39:07.215Z,54.48
2022-07-25T03:41:34.163Z,54.67
2022-07-25T03:44:01.088Z,55.00
2022-07-25T03:46:28.160Z,55.52
2022-07-25T03:48:55.874Z,55.63
2022-07-25T03:51:22.844Z,56.01
2022-07-25T03:54:09.260Z,55.72
2022-07-25T03:56:43.563Z,55.56
2022-07-25T03:59:14.827Z,55.68
2022-07-25T04:01:43.624Z,55.50
2022-07-25T04:04:11.358Z,55.70
2022-07-25T04:06:39.100Z,55.23
2022-07-25T04:09:07.793Z,55.60
2022-07-25T04:11:35.843Z,55.13
2022-07-25T04:14:03.230Z,55.38
2022-07-25T04:16:30.530Z,55.00
2022-07-25T04:18:57.696Z,54.37
2022-07-25T04:21:25.503Z,54.24
2022-07-25T04:23:53.441Z,53.83
2022-07-25T04:26:20.719Z,53.73
2022-07-25T04:28:47.700Z,53.49
2022-07-25T04:31:14.754Z,52.45
2022-07-25T04:33:42.449Z,52.77
2022-07-25T04:36:09.938Z,52.03
2022-07-25T04:38:36.853Z,51.91
2022-07-25T04:41:05.045Z,51.16
2022-07-25T04:43:32.122Z,51.42
2022-07-25T04:45:59.700Z,50.61
2022-07-25T04:48:27.104Z,49.97
2022-07-25T04:50:54.277Z,48.84
2022-07-25T04:53:21.327Z,49.22
2022-07-25T04:55:48.450Z,48.67
2022-07-25T04:58:15.685Z,48.37
2022-07-25T05:00:42.868Z,47.49
2022-07-25T05:03:10.190Z,47.10
2022-07-25T05:05:37.758Z,48.20
2022-07-25T05:08:05.062Z,47.92
2022-07-25T05:10:32.102Z,47.99
2022-07-25T05:13:00.006Z,48.00
2022-07-25T05:15:27.052Z,48.59
2022-07-25T05:17:53.987Z,48.69
2022-07-25T05:20:20.926Z,49.64
2022-07-25T05:22:47.879Z,50.05
2022-07-25T05:25:14.838Z,49.79
2022-07-25T05:27:42.105Z,49.76
2022-07-25T05:30:12.408Z,48.97
2022-07-25T05:32:40.697Z,49.14
2022-07-25T05:35:09.394Z,49.57
2022-07-25T05:37:37.788Z,49.09
2022-07-25T05:40:07.315Z,48.28
2022-07-25T05:42:34.698Z,47.25
2022-07-25T05:45:02.152Z,47.74
2022-07-25T05:47:29.150Z,46.92
2022-07-25T05:49:56.218Z,45.97
2022-07-25T05:52:23.207Z,47.38
2022-07-25T05:54:50.529Z,46.74
2022-07-25T05:57:17.671Z,46.53
2022-07-25T05:59:44.641Z,46.93
2022-07-25T06:02:11.794Z,45.83
2022-07-25T06:04:38.837Z,45.36
2022-07-25T06:07:05.818Z,44.54
2022-07-25T06:09:32.937Z,43.15
2022-07-25T06:12:01.262Z,43.64
2022-07-25T06:14:28.892Z,42.55
2022-07-25T06:16:56.937Z,41.65
2022-07-25T06:19:23.978Z,40.41
2022-07-25T06:21:50.916Z,39.62
2022-07-25T06:24:17.888Z,39.47
2022-07-25T06:26:44.893Z,37.67
2022-07-25T06:29:12.263Z,36.34
2022-07-25T06:31:39.349Z,34.53
2022-07-25T06:34:06.912Z,32.69
2022-07-25T06:36:34.514Z,31.55
2022-07-25T06:39:01.910Z,30.56
2022-07-25T06:41:28.807Z,30.46
2022-07-25T06:43:55.868Z,27.95
2022-07-25T06:46:22.899Z,27.03
2022-07-25T06:48:50.040Z,27.42
2022-07-25T06:51:17.098Z,25.88
2022-07-25T06:53:43.991Z,25.94
2022-07-25T06:56:15.744Z,25.93
2022-07-25T06:58:44.936Z,24.32
2022-07-25T07:01:12.144Z,24.02
2022-07-25T07:03:40.233Z,22.48
2022-07-25T07:06:09.549Z,22.33
2022-07-25T07:08:37.537Z,22.23
2022-07-25T07:11:08.870Z,21.99
2022-07-25T07:13:35.900Z,22.47
2022-07-25T07:16:03.604Z,22.71
2022-07-25T07:18:30.567Z,22.30
2022-07-25T07:20:57.728Z,21.30
2022-07-25T07:23:24.899Z,20.54
2022-07-25T07:25:51.970Z,21.06
2022-07-25T07:28:18.961Z,20.56
2022-07-25T07:33:33.527Z,19.32
2022-07-25T07:36:01.902Z,19.02
2022-07-25T07:38:29.053Z,18.31
2022-07-25T07:40:55.991Z,17.46
2022-07-25T07:43:27.640Z,16.89
2022-07-25T07:45:56.886Z,16.99
2022-07-25T07:48:24.086Z,16.49
2022-07-25T07:50:50.992Z,18.40
2022-07-25T07:53:18.019Z,17.81
2022-07-25T07:55:55.289Z,18.03
2022-07-25T07:58:22.318Z,18.93
2022-07-25T08:00:51.916Z,18.82
2022-07-25T08:03:20.972Z,19.23
2022-07-25T08:05:49.810Z,17.60
2022-07-25T08:08:17.226Z,17.21
2022-07-25T08:10:48.103Z,17.87
2022-07-25T08:13:22.562Z,18.14
2022-07-25T08:15:59.579Z,17.75
2022-07-25T08:18:32.593Z,17.79
2022-07-25T08:21:06.106Z,16.22
2022-07-25T08:23:39.086Z,14.89
2022-07-25T08:26:07.502Z,15.84
2022-07-25T08:28:34.408Z,16.30
2022-07-25T08:31:01.645Z,16.14
2022-07-25T08:33:28.735Z,16.70
2022-07-25T08:35:58.554Z,16.14
2022-07-25T08:38:28.389Z,16.03
2022-07-25T08:40:57.066Z,14.73
2022-07-25T08:43:24.502Z,15.05
2022-07-25T08:45:55.756Z,14.41
2022-07-25T08:48:26.171Z,14.79
2022-07-25T08:50:54.601Z,14.55
2022-07-25T08:53:37.435Z,14.42
2022-07-25T08:56:13.375Z,14.55
2022-07-25T08:58:44.029Z,13.92
2022-07-25T09:01:14.985Z,12.77
2022-07-25T09:03:43.928Z,13.96
2022-07-25T09:06:29.198Z,12.50
2022-07-25T09:08:59.622Z,12.87
2022-07-25T09:11:36.993Z,11.36
2022-07-25T09:14:08.577Z,11.18
2022-07-25T09:16:43.219Z,12.41
2022-07-25T09:19:22.767Z,12.71
2022-07-25T09:22:10.057Z,11.87
2022-07-25T09:24:44.954Z,11.48
2022-07-25T09:27:13.000Z,10.26
2022-07-25T09:29:45.007Z,10.53
2022-07-25T09:32:22.075Z,11.61
2022-07-25T09:34:50.895Z,13.33
2022-07-25T09:37:26.179Z,12.61
2022-07-25T09:39:53.308Z,13.58
2022-07-25T09:42:28.059Z,12.21
2022-07-25T09:45:14.260Z,11.18
2022-07-25T09:48:00.478Z,11.81
2022-07-25T09:50:30.342Z,10.61
2022-07-25T09:53:02.314Z,10.87
2022-07-25T09:55:30.540Z,12.25
2022-07-25T09:57:57.702Z,11.27
2022-07-25T10:00:27.752Z,12.99
2022-07-25T10:03:29.697Z,12.50
2022-07-25T10:06:21.341Z,13.89
2022-07-25T10:08:49.848Z,16.67
2022-07-25T10:11:35.031Z,18.60
2022-07-25T10:14:12.779Z,20.63
2022-07-25T10:16:48.521Z,20.04
2022-07-25T10:19:15.497Z,19.08
2022-07-25T10:21:42.403Z,17.65
2022-07-25T10:24:11.013Z,18.33
2022-07-25T10:26:40.575Z,18.95
2022-07-25T10:29:11.847Z,18.84
2022-07-25T10:31:51.258Z,19.91
2022-07-25T10:34:31.015Z,21.33
2022-07-25T10:37:15.202Z,22.71
2022-07-25T10:39:45.398Z,23.43
2022-07-25T10:42:18.266Z,24.59
2022-07-25T10:44:50.452Z,24.38
2022-07-25T10:47:18.189Z,25.85
2022-07-25T10:50:25.212Z,25.46
2022-07-25T10:52:43.009Z,26.24
2022-07-25T10:55:10.446Z,25.48
2022-07-25T10:57:54.998Z,25.25
2022-07-25T11:00:27.566Z,25.83
2022-07-25T11:02:57.791Z,27.00
2022-07-25T11:05:24.987Z,27.31
2022-07-25T11:08:19.403Z,28.23
2022-07-25T11:10:40.794Z,27.52
2022-07-25T11:13:14.754Z,27.64
2022-07-25T11:15:42.997Z,26.99
2022-07-25T11:18:10.038Z,27.19
2022-07-25T11:20:37.218Z,26.91
2022-07-25T11:23:04.204Z,26.94
2022-07-25T11:25:31.187Z,26.67
2022-07-25T11:28:00.845Z,27.07
2022-07-25T11:30:29.613Z,27.06
2022-07-25T11:33:01.385Z,26.86
2022-07-25T11:35:31.595Z,26.92
2022-07-25T11:38:02.308Z,26.79
2022-07-25T11:40:31.462Z,27.51
2022-07-25T11:42:59.691Z,28.01
2022-07-25T11:45:34.008Z,27.86
2022-07-25T11:48:08.035Z,28.17
2022-07-25T11:50:42.742Z,28.25
2022-07-25T11:53:14.423Z,28.11
2022-07-25T11:55:43.107Z,28.76
2022-07-25T11:58:12.871Z,29.26
2022-07-25T12:00:46.403Z,27.79
2022-07-25T12:03:20.944Z,28.45
2022-07-25T12:05:49.034Z,27.65
2022-07-25T12:08:20.147Z,28.64
2022-07-25T12:10:49.137Z,28.41
2022-07-25T12:13:27.905Z,28.52
2022-07-25T12:16:00.104Z,28.86
2022-07-25T12:18:27.684Z,27.20
2022-07-25T12:20:54.692Z,25.40
2022-07-25T12:23:24.598Z,24.80
2022-07-25T12:25:51.603Z,25.29
2022-07-25T12:28:18.601Z,25.33
2022-07-25T12:30:47.008Z,24.69
2022-07-25T12:33:14.827Z,24.76
2022-07-25T12:35:43.070Z,24.90
2022-07-25T12:38:14.233Z,24.97
2022-07-25T12:40:41.168Z,24.88
2022-07-25T12:43:08.069Z,24.77
2022-07-25T12:45:35.377Z,24.85
2022-07-25T12:48:03.198Z,25.41
2022-07-25T12:50:30.245Z,24.83
2022-07-25T12:52:57.135Z,24.56
2022-07-25T12:55:24.002Z,24.83
2022-07-25T12:57:51.006Z,25.05
2022-07-25T13:00:21.181Z,25.02
2022-07-25T13:02:51.897Z,25.43
2022-07-25T13:05:19.941Z,25.31
2022-07-25T13:07:48.875Z,25.63
2022-07-25T13:10:16.887Z,25.79
2022-07-25T13:12:43.989Z,25.06
2022-07-25T13:15:11.151Z,24.86
2022-07-25T13:17:38.326Z,25.60
2022-07-25T13:20:06.142Z,25.45
2022-07-25T13:22:33.252Z,26.09
2022-07-25T13:25:00.103Z,26.85
2022-07-25T13:27:27.025Z,27.07
2022-07-25T13:29:54.709Z,27.32
2022-07-25T13:32:22.637Z,27.21
2022-07-25T13:34:50.012Z,27.59
2022-07-25T13:37:16.999Z,27.63
2022-07-25T13:39:43.930Z,28.09
2022-07-25T13:42:11.150Z,28.05
2022-07-25T13:44:38.073Z,28.81
2022-07-25T13:47:05.420Z,28.57
2022-07-25T13:49:32.970Z,28.85
2022-07-25T13:51:59.993Z,29.69
2022-07-25T13:54:27.076Z,28.86
2022-07-25T13:56:54.015Z,29.33
2022-07-25T13:59:21.855Z,29.00
2022-07-25T14:01:50.234Z,30.03
2022-07-25T14:04:17.337Z,29.72
2022-07-25T14:06:44.414Z,29.72
2022-07-25T14:09:11.613Z,29.47
2022-07-25T14:11:38.615Z,29.14
2022-07-25T14:14:05.532Z,28.57
2022-07-25T14:16:34.009Z,27.79
2022-07-25T14:19:01.990Z,27.68
2022-07-25T14:21:29.234Z,27.42
2022-07-25T14:23:56.166Z,27.65
2022-07-25T14:26:23.127Z,27.89
2022-07-25T14:28:49.988Z,28.42
2022-07-25T14:31:17.358Z,28.61
2022-07-25T14:33:44.270Z,28.88
2022-07-25T14:36:11.336Z,30.07
2022-07-25T14:38:38.499Z,30.66
2022-07-25T14:41:10.689Z,31.39
2022-07-25T14:43:40.808Z,31.92
2022-07-25T14:46:08.934Z,31.05
2022-07-25T14:48:37.850Z,30.44
2022-07-25T14:51:06.051Z,31.25
2022-07-25T14:53:34.542Z,31.53
2022-07-25T14:56:04.712Z,30.96
2022-07-25T14:58:33.434Z,31.01
2022-07-25T15:01:00.572Z,30.66
2022-07-25T15:03:27.622Z,30.53
2022-07-25T15:05:54.610Z,30.48
2022-07-25T15:08:21.537Z,30.68
2022-07-25T15:10:48.645Z,30.41
2022-07-25T15:13:32.027Z,30.26
2022-07-25T15:16:00.359Z,29.85
2022-07-25T15:18:27.644Z,30.22
2022-07-25T15:20:55.293Z,29.80
2022-07-25T15:23:24.655Z,29.78
2022-07-25T15:26:02.205Z,30.02
2022-07-25T15:28:29.840Z,30.66
2022-07-25T15:30:56.725Z,30.33
2022-07-25T15:33:23.587Z,30.60
2022-07-25T15:35:50.728Z,30.46
2022-07-25T15:38:18.224Z,29.89
2022-07-25T15:40:45.779Z,30.11
2022-07-25T15:43:13.567Z,30.08
2022-07-25T15:45:43.769Z,30.23
2022-07-25T15:48:13.535Z,29.80
2022-07-25T15:50:44.857Z,29.90
2022-07-25T15:53:13.059Z,29.63
2022-07-25T15:55:41.171Z,29.40
2022-07-25T15:58:09.593Z,29.14
2022-07-25T16:00:37.372Z,29.32
2022-07-25T16:03:04.924Z,29.63
2022-07-25T16:05:31.900Z,29.77
2022-07-25T16:08:02.874Z,29.72
2022-07-25T16:10:32.549Z,30.19
2022-07-25T16:13:12.143Z,30.77
2022-07-25T16:15:39.760Z,31.11
2022-07-25T16:18:07.109Z,30.95
2022-07-25T16:20:34.185Z,30.66
2022-07-25T16:23:01.589Z,31.58
2022-07-25T16:25:30.005Z,31.55
2022-07-25T16:27:57.781Z,31.40
2022-07-25T16:30:25.806Z,31.94
2022-07-25T16:32:52.845Z,31.37
2022-07-25T16:35:19.979Z,31.49
2022-07-25T16:37:46.946Z,31.67
2022-07-25T16:40:14.413Z,32.30
2022-07-25T16:42:41.705Z,32.54
2022-07-25T16:45:09.474Z,32.19
2022-07-25T16:47:36.550Z,32.28
2022-07-25T16:50:03.765Z,32.22
2022-07-25T16:52:30.619Z,32.60
2022-07-25T16:54:57.474Z,31.92
2022-07-25T16:57:25.174Z,31.14
2022-07-25T16:59:53.406Z,30.92
2022-07-25T17:02:25.031Z,30.53
2022-07-25T17:04:53.326Z,30.57
2022-07-25T17:07:20.276Z,29.98
2022-07-25T17:09:47.513Z,29.38
2022-07-25T17:12:14.478Z,29.04
2022-07-25T17:14:41.357Z,29.17
2022-07-25T17:17:08.568Z,29.45
2022-07-25T17:19:39.696Z,30.29
2022-07-25T17:22:08.069Z,30.36
2022-07-25T17:24:35.623Z,30.48
2022-07-25T17:27:03.198Z,30.83
2022-07-25T17:29:30.239Z,31.20
2022-07-25T17:31:57.355Z,31.33
2022-07-25T17:34:26.613Z,31.16
2022-07-25T17:36:54.499Z,31.39
2022-07-25T17:39:21.488Z,30.80
2022-07-25T17:41:49.177Z,31.07
2022-07-25T17:44:16.433Z,31.16
2022-07-25T17:46:44.242Z,31.68
2022-07-25T17:49:11.332Z,32.29
2022-07-25T17:51:38.309Z,32.19
2022-07-25T17:54:05.871Z,32.47
2022-07-25T17:56:33.470Z,32.42
2022-07-25T17:59:00.434Z,32.62
2022-07-25T18:01:27.388Z,32.81
2022-07-25T18:03:54.432Z,32.45
2022-07-25T18:06:23.895Z,32.93
2022-07-25T18:08:53.253Z,32.88
2022-07-25T18:11:20.102Z,32.48
2022-07-25T18:13:46.997Z,32.66
2022-07-25T18:16:14.106Z,33.03
2022-07-25T18:18:41.129Z,32.71
2022-07-25T18:21:08.090Z,32.82
2022-07-25T18:23:35.025Z,32.71
2022-07-25T18:26:02.001Z,32.42
2022-07-25T18:28:28.939Z,33.00
2022-07-25T18:30:55.922Z,32.69
2022-07-25T18:33:22.891Z,33.16
2022-07-25T18:35:51.287Z,33.14
2022-07-25T18:38:18.585Z,33.04
2022-07-25T18:40:45.601Z,33.62
2022-07-25T18:43:12.851Z,33.93
2022-07-25T18:45:40.067Z,33.84
2022-07-25T18:48:07.361Z,33.62
2022-07-25T18:50:34.293Z,33.90
2022-07-25T18:53:01.366Z,33.94
2022-07-25T18:55:28.487Z,33.19
2022-07-25T18:57:55.419Z,33.46
2022-07-25T19:00:22.517Z,33.32
2022-07-25T19:02:50.506Z,34.23
2022-07-25T19:05:17.660Z,34.27
2022-07-25T19:07:44.605Z,34.73
2022-07-25T19:10:11.717Z,34.67
2022-07-25T19:12:40.980Z,35.00
2022-07-25T19:15:08.401Z,35.22
2022-07-25T19:17:37.059Z,35.38
2022-07-25T19:20:05.091Z,35.87
2022-07-25T19:22:32.043Z,35.80
2022-07-25T19:25:01.053Z,36.65
2022-07-25T19:27:28.843Z,36.61
2022-07-25T19:29:55.818Z,36.66
2022-07-25T19:32:22.807Z,36.30
2022-07-25T19:34:49.831Z,36.86
2022-07-25T19:37:16.821Z,37.18
2022-07-25T19:39:43.701Z,37.56
2022-07-25T19:42:12.158Z,37.62
2022-07-25T19:44:39.480Z,37.30
2022-07-25T19:47:09.895Z,37.74
2022-07-25T19:49:40.072Z,37.44
2022-07-25T19:52:10.816Z,37.87
2022-07-25T19:54:38.248Z,38.09
2022-07-25T19:57:05.603Z,38.11
2022-07-25T19:59:32.742Z,38.43
2022-07-25T20:01:59.768Z,38.50
2022-07-25T20:04:26.829Z,38.68
2022-07-25T20:06:53.746Z,38.29
2022-07-25T20:09:20.734Z,38.23
2022-07-25T20:11:48.008Z,38.50
2022-07-25T20:14:14.921Z,38.48
2022-07-25T20:16:42.164Z,38.46
2022-07-25T20:19:11.808Z,39.01
2022-07-25T20:21:40.195Z,38.63
2022-07-25T20:24:07.481Z,38.79
2022-07-25T20:26:34.563Z,38.68
2022-07-25T20:29:02.159Z,38.79
2022-07-25T20:31:29.119Z,38.78
2022-07-25T20:33:56.199Z,39.29
2022-07-25T20:36:23.141Z,39.44
2022-07-25T20:38:50.201Z,39.60
2022-07-25T20:41:17.111Z,39.14
2022-07-25T20:43:45.057Z,39.64
2022-07-25T20:46:11.986Z,38.95
2022-07-25T20:48:39.222Z,39.59
2022-07-25T20:51:06.390Z,39.72
2022-07-25T20:53:33.359Z,39.96
2022-07-25T20:56:00.315Z,39.83
2022-07-25T20:58:27.219Z,40.07
2022-07-25T21:00:54.492Z,40.17
2022-07-25T21:03:21.438Z,40.23
2022-07-25T21:05:48.415Z,40.16
2022-07-25T21:08:15.482Z,39.96
2022-07-25T21:10:42.895Z,40.41
2022-07-25T21:13:09.834Z,40.20
2022-07-25T21:15:37.474Z,40.72
2022-07-25T21:18:04.580Z,40.94
2022-07-25T21:20:31.514Z,40.93
2022-07-25T21:22:58.456Z,41.00
2022-07-25T21:25:25.439Z,41.40
2022-07-25T21:27:52.322Z,41.39
2022-07-25T21:30:19.460Z,41.17
2022-07-25T21:32:46.434Z,41.68
2022-07-25T21:35:13.397Z,41.61
2022-07-25T21:37:40.335Z,41.96
2022-07-25T21:40:08.450Z,41.73
2022-07-25T21:42:36.350Z,42.06
2022-07-25T21:45:04.326Z,41.96
2022-07-25T21:47:31.256Z,41.81
2022-07-25T21:50:24.144Z,42.08
2022-07-25T21:52:52.905Z,42.02
2022-07-25T21:55:21.029Z,42.46
2022-07-25T21:57:48.883Z,42.48
2022-07-25T22:00:16.400Z,42.19
2022-07-25T22:02:44.796Z,42.70
2022-07-25T22:05:13.824Z,42.89
2022-07-25T22:07:41.770Z,43.00
2022-07-25T22:10:11.101Z,43.18
2022-07-25T22:12:39.387Z,42.85
2022-07-25T22:15:08.930Z,43.18
2022-07-25T22:17:48.419Z,43.05
2022-07-25T22:20:18.729Z,43.08
2022-07-25T22:22:49.782Z,43.41
2022-07-25T22:25:17.244Z,43.56
2022-07-25T22:27:44.710Z,43.75
2022-07-25T22:30:18.505Z,43.77
2022-07-25T22:32:48.097Z,43.75
2022-07-25T22:35:15.987Z,43.81
2022-07-25T22:37:44.224Z,43.83
2022-07-25T22:40:12.835Z,43.79
2022-07-25T22:42:39.901Z,43.81
2022-07-25T22:45:07.945Z,43.77
2022-07-25T22:47:35.000Z,44.12
2022-07-25T22:50:02.964Z,44.00
2022-07-25T22:52:30.216Z,44.12
2022-07-25T22:54:57.119Z,43.59
2022-07-25T22:57:24.069Z,43.75
2022-07-25T22:59:50.996Z,43.71
2022-07-25T23:02:17.988Z,43.69
2022-07-25T23:04:44.925Z,44.04
2022-07-25T23:07:11.913Z,44.08
2022-07-25T23:09:38.846Z,44.09
2022-07-25T23:12:06.100Z,44.31
2022-07-25T23:14:33.175Z,44.29
2022-07-25T23:17:19.842Z,44.46
2022-07-25T23:19:50.034Z,44.25
2022-07-25T23:22:18.905Z,44.15
2022-07-25T23:24:46.262Z,44.40
2022-07-25T23:27:13.767Z,44.46
2022-07-25T23:29:41.148Z,44.62
2022-07-25T23:32:08.490Z,44.74
2022-07-25T23:34:35.994Z,44.89
2022-07-25T23:37:03.987Z,44.60
2022-07-25T23:39:31.787Z,44.79
2022-07-25T23:41:59.563Z,44.80
2022-07-25T23:44:26.774Z,44.95
2022-07-25T23:46:56.971Z,45.19
2022-07-25T23:49:24.434Z,45.27
2022-07-25T23:51:51.701Z,45.54
2022-07-25T23:54:18.609Z,45.28
2022-07-25T23:56:45.643Z,45.35
2022-07-25T23:59:12.534Z,45.77
